sensor_id;sensor_type;location;lat;lon;timestamp;temperature;humidity
46037;DHT22;31769;49.304;8.428;2023-08-21T00:02:49;25.60;99.90
46037;DHT22;31769;49.304;8.428;2023-08-21T00:05:50;25.60;99.90
46037;DHT22;31769;49.304;8.428;2023-08-21T00:08:50;25.50;99.90
46037;DHT22;31769;49.304;8.428;2023-08-21T00:11:51;25.50;99.90
46037;DHT22;31769;49.304;8.428;2023-08-21T00:14:51;25.40;99.90
46037;DHT22;31769;49.304;8.428;2023-08-21T00:17:52;25.30;99.90
46037;DHT22;31769;49.304;8.428;2023-08-21T00:20:53;25.20;99.90
46037;DHT22;31769;49.304;8.428;2023-08-21T00:23:53;25.20;99.90
46037;DHT22;31769;49.304;8.428;2023-08-21T00:26:54;25.10;99.90
46037;DHT22;31769;49.304;8.428;2023-08-21T00:29:54;25.10;99.90
46037;DHT22;31769;49.304;8.428;2023-08-21T00:32:55;25.10;99.90
46037;DHT22;31769;49.304;8.428;2023-08-21T00:35:56;25.00;99.90
46037;DHT22;31769;49.304;8.428;2023-08-21T00:38:58;24.90;99.90
46037;DHT22;31769;49.304;8.428;2023-08-21T00:41:58;24.80;99.90
46037;DHT22;31769;49.304;8.428;2023-08-21T00:44:59;24.70;99.90
46037;DHT22;31769;49.304;8.428;2023-08-21T00:48:00;24.70;99.90
46037;DHT22;31769;49.304;8.428;2023-08-21T00:51:01;24.60;99.90
46037;DHT22;31769;49.304;8.428;2023-08-21T00:54:02;24.60;99.90
46037;DHT22;31769;49.304;8.428;2023-08-21T00:57:03;24.60;99.90
46037;DHT22;31769;49.304;8.428;2023-08-21T01:00:05;24.60;99.90
46037;DHT22;31769;49.304;8.428;2023-08-21T01:03:06;24.50;99.90
46037;DHT22;31769;49.304;8.428;2023-08-21T01:06:06;24.50;99.90
46037;DHT22;31769;49.304;8.428;2023-08-21T01:09:44;24.50;99.90
46037;DHT22;31769;49.304;8.428;2023-08-21T01:13:09;24.50;99.90
46037;DHT22;31769;49.304;8.428;2023-08-21T01:16:13;24.50;99.90
46037;DHT22;31769;49.304;8.428;2023-08-21T01:19:45;24.50;99.90
46037;DHT22;31769;49.304;8.428;2023-08-21T01:22:46;24.50;99.90
46037;DHT22;31769;49.304;8.428;2023-08-21T01:25:47;24.50;99.90
46037;DHT22;31769;49.304;8.428;2023-08-21T01:28:47;24.50;99.90
46037;DHT22;31769;49.304;8.428;2023-08-21T01:32:10;24.40;99.90
46037;DHT22;31769;49.304;8.428;2023-08-21T01:35:14;24.40;99.90
46037;DHT22;31769;49.304;8.428;2023-08-21T01:38:15;24.30;99.90
46037;DHT22;31769;49.304;8.428;2023-08-21T01:41:15;24.30;99.90
46037;DHT22;31769;49.304;8.428;2023-08-21T01:44:16;24.30;99.90
46037;DHT22;31769;49.304;8.428;2023-08-21T01:47:17;24.30;99.90
46037;DHT22;31769;49.304;8.428;2023-08-21T01:50:17;24.20;99.90
46037;DHT22;31769;49.304;8.428;2023-08-21T01:53:18;24.10;99.90
46037;DHT22;31769;49.304;8.428;2023-08-21T01:56:18;24.00;99.90
46037;DHT22;31769;49.304;8.428;2023-08-21T01:59:20;24.00;99.90
46037;DHT22;31769;49.304;8.428;2023-08-21T02:02:20;24.00;99.90
46037;DHT22;31769;49.304;8.428;2023-08-21T02:05:21;24.00;99.90
46037;DHT22;31769;49.304;8.428;2023-08-21T02:08:21;24.00;99.90
46037;DHT22;31769;49.304;8.428;2023-08-21T02:11:22;23.90;99.90
46037;DHT22;31769;49.304;8.428;2023-08-21T02:14:25;23.90;99.90
46037;DHT22;31769;49.304;8.428;2023-08-21T02:17:30;23.90;99.90
46037;DHT22;31769;49.304;8.428;2023-08-21T02:20:30;23.90;99.90
46037;DHT22;31769;49.304;8.428;2023-08-21T02:23:31;24.00;99.90
46037;DHT22;31769;49.304;8.428;2023-08-21T02:26:31;23.90;99.90
46037;DHT22;31769;49.304;8.428;2023-08-21T02:29:32;23.80;99.90
46037;DHT22;31769;49.304;8.428;2023-08-21T02:32:32;24.70;99.90
46037;DHT22;31769;49.304;8.428;2023-08-21T02:35:34;23.90;99.90
46037;DHT22;31769;49.304;8.428;2023-08-21T02:38:35;24.40;99.90
46037;DHT22;31769;49.304;8.428;2023-08-21T02:41:38;23.80;99.90
46037;DHT22;31769;49.304;8.428;2023-08-21T02:44:38;23.80;99.90
46037;DHT22;31769;49.304;8.428;2023-08-21T02:47:40;23.90;99.90
46037;DHT22;31769;49.304;8.428;2023-08-21T02:50:41;24.30;99.90
46037;DHT22;31769;49.304;8.428;2023-08-21T02:53:42;23.90;99.90
46037;DHT22;31769;49.304;8.428;2023-08-21T02:56:43;23.90;99.90
46037;DHT22;31769;49.304;8.428;2023-08-21T02:59:43;23.80;99.90
46037;DHT22;31769;49.304;8.428;2023-08-21T03:02:44;23.90;99.90
46037;DHT22;31769;49.304;8.428;2023-08-21T03:05:44;23.80;99.90
46037;DHT22;31769;49.304;8.428;2023-08-21T03:08:45;23.80;99.90
46037;DHT22;31769;49.304;8.428;2023-08-21T03:11:46;23.80;99.90
46037;DHT22;31769;49.304;8.428;2023-08-21T03:14:46;23.90;99.90
46037;DHT22;31769;49.304;8.428;2023-08-21T03:17:47;23.80;99.90
46037;DHT22;31769;49.304;8.428;2023-08-21T03:20:48;23.80;99.90
46037;DHT22;31769;49.304;8.428;2023-08-21T03:23:59;23.70;99.90
46037;DHT22;31769;49.304;8.428;2023-08-21T03:27:01;23.70;99.90
46037;DHT22;31769;49.304;8.428;2023-08-21T03:30:02;23.70;99.90
46037;DHT22;31769;49.304;8.428;2023-08-21T03:33:03;23.70;99.90
46037;DHT22;31769;49.304;8.428;2023-08-21T03:36:04;23.70;99.90
46037;DHT22;31769;49.304;8.428;2023-08-21T03:39:05;23.70;99.90
46037;DHT22;31769;49.304;8.428;2023-08-21T03:42:09;23.70;99.90
46037;DHT22;31769;49.304;8.428;2023-08-21T03:45:11;23.70;99.90
46037;DHT22;31769;49.304;8.428;2023-08-21T03:48:11;23.60;99.90
46037;DHT22;31769;49.304;8.428;2023-08-21T03:51:13;23.60;99.90
46037;DHT22;31769;49.304;8.428;2023-08-21T03:54:14;23.60;99.90
46037;DHT22;31769;49.304;8.428;2023-08-21T03:57:15;23.60;99.90
46037;DHT22;31769;49.304;8.428;2023-08-21T04:00:15;23.60;99.90
46037;DHT22;31769;49.304;8.428;2023-08-21T04:03:16;23.50;99.90
46037;DHT22;31769;49.304;8.428;2023-08-21T04:06:17;23.50;99.90
46037;DHT22;31769;49.304;8.428;2023-08-21T04:09:17;23.40;99.90
46037;DHT22;31769;49.304;8.428;2023-08-21T04:12:18;23.40;99.90
46037;DHT22;31769;49.304;8.428;2023-08-21T04:15:19;23.60;99.90
46037;DHT22;31769;49.304;8.428;2023-08-21T04:18:19;23.40;99.90
46037;DHT22;31769;49.304;8.428;2023-08-21T04:21:20;23.40;99.90
46037;DHT22;31769;49.304;8.428;2023-08-21T04:24:21;23.40;99.90
46037;DHT22;31769;49.304;8.428;2023-08-21T04:27:21;23.40;99.90
46037;DHT22;31769;49.304;8.428;2023-08-21T04:30:22;23.40;99.90
46037;DHT22;31769;49.304;8.428;2023-08-21T04:33:22;23.60;99.90
46037;DHT22;31769;49.304;8.428;2023-08-21T04:36:23;23.50;99.90
46037;DHT22;31769;49.304;8.428;2023-08-21T04:39:25;23.50;99.90
46037;DHT22;31769;49.304;8.428;2023-08-21T04:42:26;23.40;99.90
46037;DHT22;31769;49.304;8.428;2023-08-21T04:45:28;23.50;99.90
46037;DHT22;31769;49.304;8.428;2023-08-21T04:48:28;23.40;99.90
46037;DHT22;31769;49.304;8.428;2023-08-21T04:51:29;23.50;99.90
46037;DHT22;31769;49.304;8.428;2023-08-21T04:54:33;23.40;99.90
46037;DHT22;31769;49.304;8.428;2023-08-21T04:57:34;23.40;99.90
46037;DHT22;31769;49.304;8.428;2023-08-21T05:00:38;23.40;99.90
46037;DHT22;31769;49.304;8.428;2023-08-21T05:03:40;23.50;99.90
46037;DHT22;31769;49.304;8.428;2023-08-21T05:06:41;23.40;99.90
46037;DHT22;31769;49.304;8.428;2023-08-21T05:09:41;23.40;99.90
46037;DHT22;31769;49.304;8.428;2023-08-21T05:12:45;23.50;99.90
46037;DHT22;31769;49.304;8.428;2023-08-21T05:15:51;23.60;99.90
46037;DHT22;31769;49.304;8.428;2023-08-21T05:18:53;23.70;99.90
46037;DHT22;31769;49.304;8.428;2023-08-21T05:21:54;23.80;99.90
46037;DHT22;31769;49.304;8.428;2023-08-21T05:24:55;23.80;99.90
46037;DHT22;31769;49.304;8.428;2023-08-21T05:27:56;23.80;99.90
46037;DHT22;31769;49.304;8.428;2023-08-21T05:31:00;23.80;99.90
46037;DHT22;31769;49.304;8.428;2023-08-21T05:34:05;23.80;99.90
46037;DHT22;31769;49.304;8.428;2023-08-21T05:37:05;23.90;99.90
46037;DHT22;31769;49.304;8.428;2023-08-21T05:40:06;23.90;99.90
46037;DHT22;31769;49.304;8.428;2023-08-21T05:43:09;23.90;99.90
46037;DHT22;31769;49.304;8.428;2023-08-21T05:46:12;23.90;99.90
46037;DHT22;31769;49.304;8.428;2023-08-21T05:49:13;24.20;99.90
46037;DHT22;31769;49.304;8.428;2023-08-21T05:52:13;24.30;99.90
46037;DHT22;31769;49.304;8.428;2023-08-21T05:55:14;24.40;99.90
46037;DHT22;31769;49.304;8.428;2023-08-21T05:58:15;24.40;99.90
46037;DHT22;31769;49.304;8.428;2023-08-21T06:01:23;24.40;99.90
46037;DHT22;31769;49.304;8.428;2023-08-21T06:04:24;24.50;99.90
46037;DHT22;31769;49.304;8.428;2023-08-21T06:07:32;24.60;99.90
46037;DHT22;31769;49.304;8.428;2023-08-21T06:10:32;24.70;99.90
46037;DHT22;31769;49.304;8.428;2023-08-21T06:13:33;24.80;99.90
46037;DHT22;31769;49.304;8.428;2023-08-21T06:16:35;24.80;99.90
46037;DHT22;31769;49.304;8.428;2023-08-21T06:19:35;24.60;99.90
46037;DHT22;31769;49.304;8.428;2023-08-21T06:22:36;24.80;99.90
46037;DHT22;31769;49.304;8.428;2023-08-21T06:25:37;25.00;99.90
46037;DHT22;31769;49.304;8.428;2023-08-21T06:28:38;25.00;99.90
46037;DHT22;31769;49.304;8.428;2023-08-21T06:31:38;24.90;99.90
46037;DHT22;31769;49.304;8.428;2023-08-21T06:34:39;25.00;99.90
46037;DHT22;31769;49.304;8.428;2023-08-21T06:37:40;25.10;99.90
46037;DHT22;31769;49.304;8.428;2023-08-21T06:40:41;25.10;99.90
46037;DHT22;31769;49.304;8.428;2023-08-21T06:43:41;25.20;99.90
46037;DHT22;31769;49.304;8.428;2023-08-21T06:46:42;25.40;99.90
46037;DHT22;31769;49.304;8.428;2023-08-21T06:49:43;25.20;99.90
46037;DHT22;31769;49.304;8.428;2023-08-21T06:52:44;25.30;99.90
46037;DHT22;31769;49.304;8.428;2023-08-21T06:55:45;25.40;99.90
46037;DHT22;31769;49.304;8.428;2023-08-21T06:58:46;25.40;99.90
46037;DHT22;31769;49.304;8.428;2023-08-21T07:01:47;25.50;99.90
46037;DHT22;31769;49.304;8.428;2023-08-21T07:04:48;25.50;99.90
46037;DHT22;31769;49.304;8.428;2023-08-21T07:07:48;25.60;99.90
46037;DHT22;31769;49.304;8.428;2023-08-21T07:10:49;25.80;99.90
46037;DHT22;31769;49.304;8.428;2023-08-21T07:13:50;25.80;99.90
46037;DHT22;31769;49.304;8.428;2023-08-21T07:16:50;25.90;99.90
46037;DHT22;31769;49.304;8.428;2023-08-21T07:19:51;25.70;99.90
46037;DHT22;31769;49.304;8.428;2023-08-21T07:22:53;25.90;99.90
46037;DHT22;31769;49.304;8.428;2023-08-21T07:25:53;26.00;99.90
46037;DHT22;31769;49.304;8.428;2023-08-21T07:28:54;26.10;99.90
46037;DHT22;31769;49.304;8.428;2023-08-21T07:31:55;26.20;99.90
46037;DHT22;31769;49.304;8.428;2023-08-21T07:34:55;26.30;99.90
46037;DHT22;31769;49.304;8.428;2023-08-21T07:37:56;26.50;99.90
46037;DHT22;31769;49.304;8.428;2023-08-21T07:41:08;26.70;99.90
46037;DHT22;31769;49.304;8.428;2023-08-21T07:44:10;26.70;99.90
46037;DHT22;31769;49.304;8.428;2023-08-21T07:47:11;26.80;99.90
46037;DHT22;31769;49.304;8.428;2023-08-21T07:50:11;26.90;99.90
46037;DHT22;31769;49.304;8.428;2023-08-21T07:53:14;27.10;99.90
46037;DHT22;31769;49.304;8.428;2023-08-21T07:56:15;27.20;99.90
46037;DHT22;31769;49.304;8.428;2023-08-21T07:59:16;27.20;99.90
46037;DHT22;31769;49.304;8.428;2023-08-21T08:02:16;27.20;99.90
46037;DHT22;31769;49.304;8.428;2023-08-21T08:05:17;27.20;99.90
46037;DHT22;31769;49.304;8.428;2023-08-21T08:08:18;27.40;99.90
46037;DHT22;31769;49.304;8.428;2023-08-21T08:11:18;27.50;99.90
46037;DHT22;31769;49.304;8.428;2023-08-21T08:14:19;27.50;99.90
46037;DHT22;31769;49.304;8.428;2023-08-21T08:17:20;27.50;99.90
46037;DHT22;31769;49.304;8.428;2023-08-21T08:20:20;27.40;99.90
46037;DHT22;31769;49.304;8.428;2023-08-21T08:23:21;27.60;99.90
46037;DHT22;31769;49.304;8.428;2023-08-21T08:26:23;27.60;99.90
46037;DHT22;31769;49.304;8.428;2023-08-21T08:29:24;27.50;99.90
46037;DHT22;31769;49.304;8.428;2023-08-21T08:32:25;27.70;99.90
46037;DHT22;31769;49.304;8.428;2023-08-21T08:35:26;27.90;99.90
46037;DHT22;31769;49.304;8.428;2023-08-21T08:38:27;28.10;99.90
46037;DHT22;31769;49.304;8.428;2023-08-21T08:41:56;28.30;99.90
46037;DHT22;31769;49.304;8.428;2023-08-21T08:45:00;28.50;99.90
46037;DHT22;31769;49.304;8.428;2023-08-21T08:48:04;28.50;99.90
46037;DHT22;31769;49.304;8.428;2023-08-21T08:51:05;28.50;99.90
46037;DHT22;31769;49.304;8.428;2023-08-21T08:54:06;28.70;99.90
46037;DHT22;31769;49.304;8.428;2023-08-21T08:57:08;28.80;99.90
46037;DHT22;31769;49.304;8.428;2023-08-21T09:00:09;29.00;99.90
46037;DHT22;31769;49.304;8.428;2023-08-21T09:03:10;29.20;99.90
46037;DHT22;31769;49.304;8.428;2023-08-21T09:06:12;29.40;99.90
46037;DHT22;31769;49.304;8.428;2023-08-21T09:09:13;29.50;99.90
46037;DHT22;31769;49.304;8.428;2023-08-21T09:12:14;29.60;99.90
46037;DHT22;31769;49.304;8.428;2023-08-21T09:15:15;29.70;99.90
46037;DHT22;31769;49.304;8.428;2023-08-21T09:18:16;29.70;99.90
46037;DHT22;31769;49.304;8.428;2023-08-21T09:21:21;29.60;99.90
46037;DHT22;31769;49.304;8.428;2023-08-21T09:24:22;29.60;99.90
46037;DHT22;31769;49.304;8.428;2023-08-21T09:27:23;29.50;99.90
46037;DHT22;31769;49.304;8.428;2023-08-21T09:30:24;29.50;99.90
46037;DHT22;31769;49.304;8.428;2023-08-21T09:33:25;29.60;99.90
46037;DHT22;31769;49.304;8.428;2023-08-21T09:36:25;29.60;99.90
46037;DHT22;31769;49.304;8.428;2023-08-21T09:39:33;29.70;99.90
46037;DHT22;31769;49.304;8.428;2023-08-21T09:42:33;29.80;99.90
46037;DHT22;31769;49.304;8.428;2023-08-21T09:45:34;30.10;99.90
46037;DHT22;31769;49.304;8.428;2023-08-21T09:48:35;30.20;99.90
46037;DHT22;31769;49.304;8.428;2023-08-21T09:51:36;30.30;99.90
46037;DHT22;31769;49.304;8.428;2023-08-21T09:54:41;30.50;99.90
46037;DHT22;31769;49.304;8.428;2023-08-21T09:57:43;30.60;99.90
46037;DHT22;31769;49.304;8.428;2023-08-21T10:00:45;30.60;99.90
46037;DHT22;31769;49.304;8.428;2023-08-21T10:03:48;30.80;99.90
46037;DHT22;31769;49.304;8.428;2023-08-21T10:06:51;31.00;99.90
46037;DHT22;31769;49.304;8.428;2023-08-21T10:09:54;31.10;99.90
46037;DHT22;31769;49.304;8.428;2023-08-21T10:12:56;31.20;99.90
46037;DHT22;31769;49.304;8.428;2023-08-21T10:15:57;31.20;99.90
46037;DHT22;31769;49.304;8.428;2023-08-21T10:19:03;31.10;99.90
46037;DHT22;31769;49.304;8.428;2023-08-21T10:22:06;31.20;99.90
46037;DHT22;31769;49.304;8.428;2023-08-21T10:25:18;31.40;99.90
46037;DHT22;31769;49.304;8.428;2023-08-21T10:28:22;31.40;99.90
46037;DHT22;31769;49.304;8.428;2023-08-21T10:31:39;31.30;99.90
46037;DHT22;31769;49.304;8.428;2023-08-21T10:34:51;31.40;99.90
46037;DHT22;31769;49.304;8.428;2023-08-21T10:38:12;31.60;99.90
46037;DHT22;31769;49.304;8.428;2023-08-21T10:41:13;31.60;99.90
46037;DHT22;31769;49.304;8.428;2023-08-21T10:44:14;31.80;99.90
46037;DHT22;31769;49.304;8.428;2023-08-21T10:50:27;32.00;99.90
46037;DHT22;31769;49.304;8.428;2023-08-21T10:53:28;32.10;99.90
46037;DHT22;31769;49.304;8.428;2023-08-21T10:56:31;32.30;99.90
46037;DHT22;31769;49.304;8.428;2023-08-21T10:59:32;32.40;99.90
46037;DHT22;31769;49.304;8.428;2023-08-21T11:02:34;32.60;99.90
46037;DHT22;31769;49.304;8.428;2023-08-21T11:05:36;32.70;99.90
46037;DHT22;31769;49.304;8.428;2023-08-21T11:08:37;32.80;99.90
46037;DHT22;31769;49.304;8.428;2023-08-21T11:11:38;32.80;99.90
46037;DHT22;31769;49.304;8.428;2023-08-21T11:14:39;32.80;99.90
46037;DHT22;31769;49.304;8.428;2023-08-21T11:17:40;32.80;99.90
46037;DHT22;31769;49.304;8.428;2023-08-21T11:20:40;32.60;99.90
46037;DHT22;31769;49.304;8.428;2023-08-21T11:23:42;32.20;99.90
46037;DHT22;31769;49.304;8.428;2023-08-21T11:26:43;32.40;99.90
46037;DHT22;31769;49.304;8.428;2023-08-21T11:29:48;32.70;99.90
46037;DHT22;31769;49.304;8.428;2023-08-21T11:33:04;33.00;99.90
46037;DHT22;31769;49.304;8.428;2023-08-21T11:36:05;33.10;99.90
46037;DHT22;31769;49.304;8.428;2023-08-21T11:39:05;33.00;99.90
46037;DHT22;31769;49.304;8.428;2023-08-21T11:42:12;33.00;99.80
46037;DHT22;31769;49.304;8.428;2023-08-21T11:45:13;33.00;99.50
46037;DHT22;31769;49.304;8.428;2023-08-21T11:48:13;33.20;99.40
46037;DHT22;31769;49.304;8.428;2023-08-21T11:51:14;33.50;99.30
46037;DHT22;31769;49.304;8.428;2023-08-21T11:54:17;33.60;99.00
46037;DHT22;31769;49.304;8.428;2023-08-21T11:57:19;33.50;99.10
46037;DHT22;31769;49.304;8.428;2023-08-21T12:00:28;33.80;98.90
46037;DHT22;31769;49.304;8.428;2023-08-21T12:03:29;34.40;98.10
46037;DHT22;31769;49.304;8.428;2023-08-21T12:06:31;35.10;97.70
46037;DHT22;31769;49.304;8.428;2023-08-21T12:09:33;35.50;95.90
46037;DHT22;31769;49.304;8.428;2023-08-21T12:12:34;35.40;95.80
46037;DHT22;31769;49.304;8.428;2023-08-21T12:15:34;35.40;95.80
46037;DHT22;31769;49.304;8.428;2023-08-21T12:18:35;35.80;94.30
46037;DHT22;31769;49.304;8.428;2023-08-21T12:21:35;36.10;94.70
46037;DHT22;31769;49.304;8.428;2023-08-21T12:24:38;37.30;93.10
46037;DHT22;31769;49.304;8.428;2023-08-21T12:27:38;38.80;88.50
46037;DHT22;31769;49.304;8.428;2023-08-21T12:30:39;39.30;85.80
46037;DHT22;31769;49.304;8.428;2023-08-21T12:33:40;40.50;78.90
46037;DHT22;31769;49.304;8.428;2023-08-21T12:36:41;40.90;78.90
46037;DHT22;31769;49.304;8.428;2023-08-21T12:39:41;43.40;72.20
46037;DHT22;31769;49.304;8.428;2023-08-21T12:42:42;45.40;63.90
46037;DHT22;31769;49.304;8.428;2023-08-21T12:45:43;47.30;58.10
46037;DHT22;31769;49.304;8.428;2023-08-21T12:48:44;47.70;53.50
46037;DHT22;31769;49.304;8.428;2023-08-21T12:51:44;49.30;52.00
46037;DHT22;31769;49.304;8.428;2023-08-21T12:54:45;49.30;48.70
46037;DHT22;31769;49.304;8.428;2023-08-21T12:57:45;49.10;49.30
46037;DHT22;31769;49.304;8.428;2023-08-21T13:00:46;50.10;48.50
46037;DHT22;31769;49.304;8.428;2023-08-21T13:03:47;51.30;46.20
46037;DHT22;31769;49.304;8.428;2023-08-21T13:06:48;51.40;45.30
46037;DHT22;31769;49.304;8.428;2023-08-21T13:09:49;51.70;44.30
46037;DHT22;31769;49.304;8.428;2023-08-21T13:12:49;51.30;44.20
46037;DHT22;31769;49.304;8.428;2023-08-21T13:15:52;51.50;43.30
46037;DHT22;31769;49.304;8.428;2023-08-21T13:18:54;51.20;43.50
46037;DHT22;31769;49.304;8.428;2023-08-21T13:21:54;51.50;43.90
46037;DHT22;31769;49.304;8.428;2023-08-21T13:24:55;51.40;43.90
46037;DHT22;31769;49.304;8.428;2023-08-21T13:27:56;51.60;43.00
46037;DHT22;31769;49.304;8.428;2023-08-21T13:30:57;50.10;42.60
46037;DHT22;31769;49.304;8.428;2023-08-21T13:33:58;49.30;43.30
46037;DHT22;31769;49.304;8.428;2023-08-21T13:36:59;49.00;43.60
46037;DHT22;31769;49.304;8.428;2023-08-21T13:39:59;48.90;45.00
46037;DHT22;31769;49.304;8.428;2023-08-21T13:43:01;50.10;44.10
46037;DHT22;31769;49.304;8.428;2023-08-21T13:46:02;49.40;44.00
46037;DHT22;31769;49.304;8.428;2023-08-21T13:49:05;47.50;45.40
46037;DHT22;31769;49.304;8.428;2023-08-21T13:52:06;46.50;46.40
46037;DHT22;31769;49.304;8.428;2023-08-21T13:55:10;48.30;45.40
46037;DHT22;31769;49.304;8.428;2023-08-21T13:58:11;49.70;43.60
46037;DHT22;31769;49.304;8.428;2023-08-21T14:01:12;49.40;43.90
46037;DHT22;31769;49.304;8.428;2023-08-21T14:04:12;48.00;45.10
46037;DHT22;31769;49.304;8.428;2023-08-21T14:07:13;46.40;46.40
46037;DHT22;31769;49.304;8.428;2023-08-21T14:10:13;44.60;48.20
46037;DHT22;31769;49.304;8.428;2023-08-21T14:13:14;42.90;49.90
46037;DHT22;31769;49.304;8.428;2023-08-21T14:16:16;41.90;52.00
46037;DHT22;31769;49.304;8.428;2023-08-21T14:19:16;43.90;50.00
46037;DHT22;31769;49.304;8.428;2023-08-21T14:22:17;44.40;49.00
46037;DHT22;31769;49.304;8.428;2023-08-21T14:25:17;42.70;50.60
46037;DHT22;31769;49.304;8.428;2023-08-21T14:28:18;41.60;52.10
46037;DHT22;31769;49.304;8.428;2023-08-21T14:31:19;40.60;54.00
46037;DHT22;31769;49.304;8.428;2023-08-21T14:34:20;40.30;54.30
46037;DHT22;31769;49.304;8.428;2023-08-21T14:37:21;40.40;54.30
46037;DHT22;31769;49.304;8.428;2023-08-21T14:40:24;41.60;52.70
46037;DHT22;31769;49.304;8.428;2023-08-21T14:43:25;41.60;52.60
46037;DHT22;31769;49.304;8.428;2023-08-21T14:46:25;43.20;50.60
46037;DHT22;31769;49.304;8.428;2023-08-21T14:49:26;43.30;50.30
46037;DHT22;31769;49.304;8.428;2023-08-21T14:52:27;45.60;48.40
46037;DHT22;31769;49.304;8.428;2023-08-21T14:55:27;44.90;47.90
46037;DHT22;31769;49.304;8.428;2023-08-21T14:58:28;43.20;49.70
46037;DHT22;31769;49.304;8.428;2023-08-21T15:01:28;41.70;51.30
46037;DHT22;31769;49.304;8.428;2023-08-21T15:04:29;40.30;53.10
46037;DHT22;31769;49.304;8.428;2023-08-21T15:07:30;39.20;55.20
46037;DHT22;31769;49.304;8.428;2023-08-21T15:10:31;39.10;56.40
46037;DHT22;31769;49.304;8.428;2023-08-21T15:13:31;42.40;51.90
46037;DHT22;31769;49.304;8.428;2023-08-21T15:16:32;46.20;48.10
46037;DHT22;31769;49.304;8.428;2023-08-21T15:19:33;48.40;45.50
46037;DHT22;31769;49.304;8.428;2023-08-21T15:22:34;49.20;44.50
46037;DHT22;31769;49.304;8.428;2023-08-21T15:25:34;47.20;45.40
46037;DHT22;31769;49.304;8.428;2023-08-21T15:28:35;47.40;45.40
46037;DHT22;31769;49.304;8.428;2023-08-21T15:31:35;48.50;44.60
46037;DHT22;31769;49.304;8.428;2023-08-21T15:34:36;47.20;44.90
46037;DHT22;31769;49.304;8.428;2023-08-21T15:37:37;44.60;47.80
46037;DHT22;31769;49.304;8.428;2023-08-21T15:40:37;43.60;48.90
46037;DHT22;31769;49.304;8.428;2023-08-21T15:43:38;42.40;50.50
46037;DHT22;31769;49.304;8.428;2023-08-21T15:46:39;42.80;50.30
46037;DHT22;31769;49.304;8.428;2023-08-21T15:49:40;45.00;48.00
46037;DHT22;31769;49.304;8.428;2023-08-21T15:52:40;47.20;45.80
46037;DHT22;31769;49.304;8.428;2023-08-21T15:55:41;48.40;44.50
46037;DHT22;31769;49.304;8.428;2023-08-21T15:58:42;49.20;43.60
46037;DHT22;31769;49.304;8.428;2023-08-21T16:01:43;50.20;42.50
46037;DHT22;31769;49.304;8.428;2023-08-21T16:04:43;50.10;42.20
46037;DHT22;31769;49.304;8.428;2023-08-21T16:07:44;49.90;42.40
46037;DHT22;31769;49.304;8.428;2023-08-21T16:10:45;50.10;42.10
46037;DHT22;31769;49.304;8.428;2023-08-21T16:13:45;50.50;41.40
46037;DHT22;31769;49.304;8.428;2023-08-21T16:16:46;50.90;41.20
46037;DHT22;31769;49.304;8.428;2023-08-21T16:19:47;51.30;40.50
46037;DHT22;31769;49.304;8.428;2023-08-21T16:22:47;50.60;40.80
46037;DHT22;31769;49.304;8.428;2023-08-21T16:25:49;49.90;41.20
46037;DHT22;31769;49.304;8.428;2023-08-21T16:28:49;50.40;40.90
46037;DHT22;31769;49.304;8.428;2023-08-21T16:31:50;49.60;41.40
46037;DHT22;31769;49.304;8.428;2023-08-21T16:34:51;49.60;41.60
46037;DHT22;31769;49.304;8.428;2023-08-21T16:37:52;50.10;41.20
46037;DHT22;31769;49.304;8.428;2023-08-21T16:40:52;50.00;41.00
46037;DHT22;31769;49.304;8.428;2023-08-21T16:43:53;49.00;42.10
46037;DHT22;31769;49.304;8.428;2023-08-21T16:46:53;49.00;41.70
46037;DHT22;31769;49.304;8.428;2023-08-21T16:49:54;47.90;42.90
46037;DHT22;31769;49.304;8.428;2023-08-21T16:52:55;48.00;42.10
46037;DHT22;31769;49.304;8.428;2023-08-21T16:55:55;47.50;43.00
46037;DHT22;31769;49.304;8.428;2023-08-21T16:58:58;47.50;42.90
46037;DHT22;31769;49.304;8.428;2023-08-21T17:01:58;47.60;42.80
46037;DHT22;31769;49.304;8.428;2023-08-21T17:05:00;48.10;42.10
46037;DHT22;31769;49.304;8.428;2023-08-21T17:08:00;47.90;42.40
46037;DHT22;31769;49.304;8.428;2023-08-21T17:11:01;47.40;42.80
46037;DHT22;31769;49.304;8.428;2023-08-21T17:14:02;46.60;43.60
46037;DHT22;31769;49.304;8.428;2023-08-21T17:17:03;45.70;44.50
46037;DHT22;31769;49.304;8.428;2023-08-21T17:20:04;44.60;45.60
46037;DHT22;31769;49.304;8.428;2023-08-21T17:23:05;44.80;45.10
46037;DHT22;31769;49.304;8.428;2023-08-21T17:26:06;44.50;44.60
46037;DHT22;31769;49.304;8.428;2023-08-21T17:29:06;44.40;45.20
46037;DHT22;31769;49.304;8.428;2023-08-21T17:32:14;44.30;45.30
46037;DHT22;31769;49.304;8.428;2023-08-21T17:35:15;43.50;45.60
46037;DHT22;31769;49.304;8.428;2023-08-21T17:38:16;42.60;46.90
46037;DHT22;31769;49.304;8.428;2023-08-21T17:41:17;41.90;47.30
46037;DHT22;31769;49.304;8.428;2023-08-21T17:44:17;41.10;48.40
46037;DHT22;31769;49.304;8.428;2023-08-21T17:47:18;40.60;49.80
46037;DHT22;31769;49.304;8.428;2023-08-21T17:50:18;39.70;50.70
46037;DHT22;31769;49.304;8.428;2023-08-21T17:53:19;39.10;51.30
46037;DHT22;31769;49.304;8.428;2023-08-21T17:56:20;38.30;52.30
46037;DHT22;31769;49.304;8.428;2023-08-21T17:59:20;37.70;53.40
46037;DHT22;31769;49.304;8.428;2023-08-21T18:02:21;37.00;54.10
46037;DHT22;31769;49.304;8.428;2023-08-21T18:05:22;36.30;54.80
46037;DHT22;31769;49.304;8.428;2023-08-21T18:08:23;36.00;55.30
46037;DHT22;31769;49.304;8.428;2023-08-21T18:11:24;35.60;56.10
46037;DHT22;31769;49.304;8.428;2023-08-21T18:14:24;35.20;56.70
46037;DHT22;31769;49.304;8.428;2023-08-21T18:17:25;34.80;57.70
46037;DHT22;31769;49.304;8.428;2023-08-21T18:20:52;34.40;58.40
46037;DHT22;31769;49.304;8.428;2023-08-21T18:23:54;34.00;59.70
46037;DHT22;31769;49.304;8.428;2023-08-21T18:26:55;33.50;60.50
46037;DHT22;31769;49.304;8.428;2023-08-21T18:29:56;33.10;61.80
46037;DHT22;31769;49.304;8.428;2023-08-21T18:32:56;32.80;62.80
46037;DHT22;31769;49.304;8.428;2023-08-21T18:35:58;32.50;63.60
46037;DHT22;31769;49.304;8.428;2023-08-21T18:38:59;32.30;64.50
46037;DHT22;31769;49.304;8.428;2023-08-21T18:42:00;32.10;65.20
46037;DHT22;31769;49.304;8.428;2023-08-21T18:45:00;31.80;65.90
46037;DHT22;31769;49.304;8.428;2023-08-21T18:48:01;31.60;66.60
46037;DHT22;31769;49.304;8.428;2023-08-21T18:51:02;31.40;67.30
46037;DHT22;31769;49.304;8.428;2023-08-21T18:54:02;31.30;67.90
46037;DHT22;31769;49.304;8.428;2023-08-21T18:57:03;31.10;68.60
46037;DHT22;31769;49.304;8.428;2023-08-21T19:00:05;31.00;69.20
46037;DHT22;31769;49.304;8.428;2023-08-21T19:03:12;30.90;69.80
46037;DHT22;31769;49.304;8.428;2023-08-21T19:06:13;30.80;70.40
46037;DHT22;31769;49.304;8.428;2023-08-21T19:09:14;30.70;70.90
46037;DHT22;31769;49.304;8.428;2023-08-21T19:12:14;30.60;71.30